Terminal Aerodrome Forecast
Issued by NWS

Home | Current Version | Previous Version | Text Only | Print | Product List | Glossary On
Versions: 1 2 3 4 5 6 7 8 9 10 11 12 13 14 15 16 17 18 19 20 21 22 23
000
FTUS45 KCYS 062320
TAFLAR
TAF
KLAR 062320Z 0700/0724 01015G25KT P6SM VCTS SCT090CB
     FM070200 10009KT P6SM BKN060
     FM071000 05009KT 3SM BR OVC035
     FM071500 07015KT P6SM BKN050
     FM071900 30014G25KT P6SM OVC035
      TEMPO 0719/0723 VRB20G35KT 3SM TSRA BKN025CB=

USA.gov is the U.S. government's official web portal to all federal, state and local government web resources and services.